sensor_id;sensor_type;location;lat;lon;timestamp;pressure;altitude;pressure_sealevel;temperature;humidity
41218;BME280;26950;50.960;7.138;2023-03-25T00:01:32;99535.75;;;13.30;57.65
41218;BME280;26950;50.960;7.138;2023-03-25T00:03:59;99534.00;;;13.46;57.48
41218;BME280;26950;50.960;7.138;2023-03-25T00:06:28;99535.72;;;13.50;56.88
41218;BME280;26950;50.960;7.138;2023-03-25T00:08:55;99532.22;;;13.16;57.58
41218;BME280;26950;50.960;7.138;2023-03-25T00:11:22;99539.22;;;13.05;58.18
41218;BME280;26950;50.960;7.138;2023-03-25T00:13:49;99538.38;;;13.24;57.33
41218;BME280;26950;50.960;7.138;2023-03-25T00:16:15;99533.97;;;13.37;57.31
41218;BME280;26950;50.960;7.138;2023-03-25T00:18:44;99533.97;;;13.38;56.89
41218;BME280;26950;50.960;7.138;2023-03-25T00:21:12;99532.22;;;13.45;56.83
41218;BME280;26950;50.960;7.138;2023-03-25T00:23:40;99532.19;;;13.56;56.52
41218;BME280;26950;50.960;7.138;2023-03-25T00:26:07;99538.41;;;13.27;56.58
41218;BME280;26950;50.960;7.138;2023-03-25T00:28:36;99533.13;;;13.27;56.82
41218;BME280;26950;50.960;7.138;2023-03-25T00:31:05;99538.34;;;13.55;56.86
41218;BME280;26950;50.960;7.138;2023-03-25T00:33:32;99533.97;;;13.15;56.80
41218;BME280;26950;50.960;7.138;2023-03-25T00:36:01;99533.13;;;13.22;56.46
41218;BME280;26950;50.960;7.138;2023-03-25T00:38:31;99528.72;;;13.25;56.63
41218;BME280;26950;50.960;7.138;2023-03-25T00:41:08;99526.97;;;13.36;56.05
41218;BME280;26950;50.960;7.138;2023-03-25T00:43:35;99521.69;;;13.40;56.16
41218;BME280;26950;50.960;7.138;2023-03-25T00:46:01;99527.78;;;13.64;55.87
41218;BME280;26950;50.960;7.138;2023-03-25T00:48:28;99528.72;;;13.52;55.89
41218;BME280;26950;50.960;7.138;2023-03-25T00:50:55;99534.84;;;13.51;55.51
41218;BME280;26950;50.960;7.138;2023-03-25T00:53:23;99528.69;;;13.18;56.51
41218;BME280;26950;50.960;7.138;2023-03-25T00:55:50;99535.72;;;13.13;56.49
41218;BME280;26950;50.960;7.138;2023-03-25T00:58:17;99523.44;;;13.26;56.09
41218;BME280;26950;50.960;7.138;2023-03-25T01:00:43;99521.69;;;13.37;56.40
41218;BME280;26950;50.960;7.138;2023-03-25T01:03:10;99524.34;;;13.28;56.62
41218;BME280;26950;50.960;7.138;2023-03-25T01:05:37;99519.06;;;13.39;56.00
41218;BME280;26950;50.960;7.138;2023-03-25T01:08:06;99520.75;;;13.63;55.78
41218;BME280;26950;50.960;7.138;2023-03-25T01:10:36;99515.50;;;12.92;56.57
41218;BME280;26950;50.960;7.138;2023-03-25T01:13:02;99517.28;;;12.96;56.90
41218;BME280;26950;50.960;7.138;2023-03-25T01:15:29;99510.28;;;13.03;56.49
41218;BME280;26950;50.960;7.138;2023-03-25T01:17:56;99520.81;;;13.41;56.14
41218;BME280;26950;50.960;7.138;2023-03-25T01:20:22;99529.56;;;13.49;55.58
41218;BME280;26950;50.960;7.138;2023-03-25T01:22:50;99520.84;;;13.28;56.21
41218;BME280;26950;50.960;7.138;2023-03-25T01:25:17;99517.28;;;13.09;56.56
41218;BME280;26950;50.960;7.138;2023-03-25T01:27:45;99515.50;;;13.00;57.05
41218;BME280;26950;50.960;7.138;2023-03-25T01:30:13;99510.28;;;13.29;55.83
41218;BME280;26950;50.960;7.138;2023-03-25T01:32:39;99514.63;;;12.81;57.32
41218;BME280;26950;50.960;7.138;2023-03-25T01:35:07;99511.16;;;13.02;57.31
41218;BME280;26950;50.960;7.138;2023-03-25T01:37:35;99505.00;;;12.99;57.20
41218;BME280;26950;50.960;7.138;2023-03-25T01:40:03;99512.88;;;13.18;56.50
41218;BME280;26950;50.960;7.138;2023-03-25T01:42:32;99512.06;;;13.33;56.08
41218;BME280;26950;50.960;7.138;2023-03-25T01:45:15;99505.00;;;13.17;56.66
41218;BME280;26950;50.960;7.138;2023-03-25T01:47:44;99497.97;;;13.04;56.76
41218;BME280;26950;50.960;7.138;2023-03-25T01:50:12;99495.34;;;13.36;56.12
41218;BME280;26950;50.960;7.138;2023-03-25T01:52:41;99498.84;;;13.09;56.60
41218;BME280;26950;50.960;7.138;2023-03-25T01:55:08;99487.44;;;13.11;56.79
41218;BME280;26950;50.960;7.138;2023-03-25T01:57:37;99490.97;;;13.33;56.11
41218;BME280;26950;50.960;7.138;2023-03-25T02:00:07;99490.94;;;13.12;56.58
41218;BME280;26950;50.960;7.138;2023-03-25T02:02:35;99486.56;;;13.20;56.60
41218;BME280;26950;50.960;7.138;2023-03-25T02:05:06;99478.66;;;13.34;55.88
41218;BME280;26950;50.960;7.138;2023-03-25T02:07:38;99486.53;;;13.38;56.01
41218;BME280;26950;50.960;7.138;2023-03-25T02:10:09;99496.19;;;13.48;55.49
41218;BME280;26950;50.960;7.138;2023-03-25T02:12:36;99492.69;;;13.37;56.41
41218;BME280;26950;50.960;7.138;2023-03-25T02:15:06;99483.94;;;13.23;58.16
41218;BME280;26950;50.960;7.138;2023-03-25T02:17:44;99484.78;;;12.87;60.17
41218;BME280;26950;50.960;7.138;2023-03-25T02:20:38;99481.31;;;13.21;60.26
41218;BME280;26950;50.960;7.138;2023-03-25T02:26:35;99493.59;;;13.10;62.24
41218;BME280;26950;50.960;7.138;2023-03-25T02:29:09;99505.00;;;13.09;62.86
41218;BME280;26950;50.960;7.138;2023-03-25T02:31:49;99490.94;;;13.06;63.97
41218;BME280;26950;50.960;7.138;2023-03-25T02:34:33;99497.94;;;12.68;65.24
41218;BME280;26950;50.960;7.138;2023-03-25T02:40:18;99498.78;;;12.43;67.61
41218;BME280;26950;50.960;7.138;2023-03-25T02:42:49;99492.69;;;12.58;67.84
41218;BME280;26950;50.960;7.138;2023-03-25T02:45:22;99483.03;;;12.52;67.88
41218;BME280;26950;50.960;7.138;2023-03-25T02:47:54;99494.06;;;11.67;69.40
41218;BME280;26950;50.960;7.138;2023-03-25T02:50:26;99504.75;;;11.99;68.85
41218;BME280;26950;50.960;7.138;2023-03-25T02:52:56;99502.81;;;11.63;69.01
41218;BME280;26950;50.960;7.138;2023-03-25T02:55:27;99498.59;;;11.90;68.96
41218;BME280;26950;50.960;7.138;2023-03-25T02:57:56;99494.22;;;11.93;68.72
41218;BME280;26950;50.960;7.138;2023-03-25T03:00:26;99490.78;;;12.08;68.20
41218;BME280;26950;50.960;7.138;2023-03-25T03:02:56;99496.91;;;12.04;67.72
41218;BME280;26950;50.960;7.138;2023-03-25T03:05:25;99490.69;;;11.83;68.15
41218;BME280;26950;50.960;7.138;2023-03-25T03:07:58;99482.06;;;12.24;66.96
41218;BME280;26950;50.960;7.138;2023-03-25T03:10:36;99483.81;;;12.21;67.11
41218;BME280;26950;50.960;7.138;2023-03-25T03:13:17;99490.84;;;12.29;66.56
41218;BME280;26950;50.960;7.138;2023-03-25T03:15:53;99475.94;;;12.31;66.49
41218;BME280;26950;50.960;7.138;2023-03-25T03:18:27;99480.38;;;12.45;66.19
41218;BME280;26950;50.960;7.138;2023-03-25T03:21:06;99475.94;;;12.37;66.20
41218;BME280;26950;50.960;7.138;2023-03-25T03:23:37;99493.53;;;12.38;66.82
41218;BME280;26950;50.960;7.138;2023-03-25T03:26:11;99489.94;;;12.13;67.07
41218;BME280;26950;50.960;7.138;2023-03-25T03:28:46;99494.28;;;12.13;67.43
41218;BME280;26950;50.960;7.138;2023-03-25T03:31:19;99480.28;;;12.17;66.78
41218;BME280;26950;50.960;7.138;2023-03-25T03:33:52;99483.78;;;12.16;66.77
41218;BME280;26950;50.960;7.138;2023-03-25T03:36:24;99497.78;;;12.03;67.28
41218;BME280;26950;50.960;7.138;2023-03-25T03:38:57;99485.38;;;11.77;67.87
41218;BME280;26950;50.960;7.138;2023-03-25T03:41:26;99491.69;;;12.16;66.98
41218;BME280;26950;50.960;7.138;2023-03-25T03:43:57;99486.19;;;11.69;67.57
41218;BME280;26950;50.960;7.138;2023-03-25T03:46:29;99487.09;;;11.71;67.13
41218;BME280;26950;50.960;7.138;2023-03-25T03:48:59;99492.47;;;11.92;65.90
41218;BME280;26950;50.960;7.138;2023-03-25T03:51:29;99496.97;;;12.31;65.11
41218;BME280;26950;50.960;7.138;2023-03-25T03:53:59;99499.56;;;12.16;65.37
41218;BME280;26950;50.960;7.138;2023-03-25T03:56:32;99489.06;;;12.19;65.12
41218;BME280;26950;50.960;7.138;2023-03-25T03:59:03;99497.03;;;12.48;64.84
41218;BME280;26950;50.960;7.138;2023-03-25T04:01:36;99492.66;;;12.49;64.52
41218;BME280;26950;50.960;7.138;2023-03-25T04:04:12;99496.13;;;12.41;64.28
41218;BME280;26950;50.960;7.138;2023-03-25T04:06:43;99496.09;;;12.29;65.13
41218;BME280;26950;50.960;7.138;2023-03-25T04:09:17;99500.41;;;12.03;65.52
41218;BME280;26950;50.960;7.138;2023-03-25T04:11:56;99497.78;;;12.01;65.99
41218;BME280;26950;50.960;7.138;2023-03-25T04:14:25;99498.75;;;12.35;64.07
41218;BME280;26950;50.960;7.138;2023-03-25T04:16:53;99508.41;;;12.41;63.81
41218;BME280;26950;50.960;7.138;2023-03-25T04:19:20;99503.16;;;12.49;62.87
41218;BME280;26950;50.960;7.138;2023-03-25T04:21:47;99497.91;;;12.49;62.88
41218;BME280;26950;50.960;7.138;2023-03-25T04:24:14;99500.53;;;12.39;62.94
41218;BME280;26950;50.960;7.138;2023-03-25T04:26:44;99497.03;;;12.45;63.01
41218;BME280;26950;50.960;7.138;2023-03-25T04:29:12;99501.41;;;12.46;62.03
41218;BME280;26950;50.960;7.138;2023-03-25T04:31:39;99502.31;;;12.51;61.65
41218;BME280;26950;50.960;7.138;2023-03-25T04:34:10;99508.47;;;12.58;61.94
41218;BME280;26950;50.960;7.138;2023-03-25T04:36:39;99516.25;;;12.20;62.34
41218;BME280;26950;50.960;7.138;2023-03-25T04:39:08;99511.00;;;12.20;62.79
41218;BME280;26950;50.960;7.138;2023-03-25T04:41:36;99500.53;;;12.49;62.29
41218;BME280;26950;50.960;7.138;2023-03-25T04:44:02;99501.41;;;12.32;61.48
41218;BME280;26950;50.960;7.138;2023-03-25T04:46:33;99496.19;;;12.52;61.33
41218;BME280;26950;50.960;7.138;2023-03-25T04:49:00;99496.03;;;12.12;61.78
41218;BME280;26950;50.960;7.138;2023-03-25T04:51:28;99491.78;;;12.47;60.10
41218;BME280;26950;50.960;7.138;2023-03-25T04:53:55;99497.03;;;12.45;60.13
41218;BME280;26950;50.960;7.138;2023-03-25T04:56:21;99501.34;;;12.20;60.36
41218;BME280;26950;50.960;7.138;2023-03-25T04:58:51;99498.47;;;11.74;61.16
41218;BME280;26950;50.960;7.138;2023-03-25T05:01:22;99496.81;;;11.85;60.97
41218;BME280;26950;50.960;7.138;2023-03-25T05:03:56;99497.88;;;12.38;59.78
41218;BME280;26950;50.960;7.138;2023-03-25T05:06:29;99499.56;;;12.16;59.99
41218;BME280;26950;50.960;7.138;2023-03-25T05:08:57;99489.13;;;12.39;59.26
41218;BME280;26950;50.960;7.138;2023-03-25T05:11:23;99496.19;;;12.64;58.68
41218;BME280;26950;50.960;7.138;2023-03-25T05:13:50;99488.22;;;12.26;59.07
41218;BME280;26950;50.960;7.138;2023-03-25T05:16:16;99489.13;;;12.39;59.18
41218;BME280;26950;50.960;7.138;2023-03-25T05:18:43;99488.28;;;12.45;59.08
41218;BME280;26950;50.960;7.138;2023-03-25T05:21:11;99489.06;;;12.25;58.80
41218;BME280;26950;50.960;7.138;2023-03-25T05:23:37;99485.66;;;12.45;59.45
41218;BME280;26950;50.960;7.138;2023-03-25T05:26:06;99494.28;;;12.13;60.04
41218;BME280;26950;50.960;7.138;2023-03-25T05:28:33;99492.53;;;12.12;59.99
41218;BME280;26950;50.960;7.138;2023-03-25T05:31:00;99486.41;;;12.19;60.25
41218;BME280;26950;50.960;7.138;2023-03-25T05:33:32;99493.50;;;12.34;59.18
41218;BME280;26950;50.960;7.138;2023-03-25T05:36:01;99498.66;;;12.06;59.73
41218;BME280;26950;50.960;7.138;2023-03-25T05:38:29;99497.84;;;12.32;59.10
41218;BME280;26950;50.960;7.138;2023-03-25T05:40:57;99486.47;;;12.28;59.85
41218;BME280;26950;50.960;7.138;2023-03-25T05:43:24;99493.50;;;12.35;59.78
41218;BME280;26950;50.960;7.138;2023-03-25T05:45:51;99493.47;;;12.20;59.82
41218;BME280;26950;50.960;7.138;2023-03-25T05:48:17;99498.56;;;11.83;59.89
41218;BME280;26950;50.960;7.138;2023-03-25T05:50:44;99492.63;;;12.36;59.19
41218;BME280;26950;50.960;7.138;2023-03-25T05:53:12;99498.81;;;12.54;58.37
41218;BME280;26950;50.960;7.138;2023-03-25T05:55:41;99500.56;;;12.68;57.86
41218;BME280;26950;50.960;7.138;2023-03-25T05:58:07;99494.41;;;12.48;58.40
41218;BME280;26950;50.960;7.138;2023-03-25T06:00:35;99490.84;;;12.26;58.95
41218;BME280;26950;50.960;7.138;2023-03-25T06:03:05;99495.22;;;12.23;58.23
41218;BME280;26950;50.960;7.138;2023-03-25T06:05:32;99496.06;;;12.08;58.32
41218;BME280;26950;50.960;7.138;2023-03-25T06:07:58;99494.34;;;12.25;57.86
41218;BME280;26950;50.960;7.138;2023-03-25T06:10:26;99493.50;;;12.43;57.73
41218;BME280;26950;50.960;7.138;2023-03-25T06:12:54;99496.19;;;12.60;57.22
41218;BME280;26950;50.960;7.138;2023-03-25T06:15:20;99500.59;;;12.65;56.87
41218;BME280;26950;50.960;7.138;2023-03-25T06:17:56;99495.28;;;12.55;57.49
41218;BME280;26950;50.960;7.138;2023-03-25T06:20:22;99493.56;;;12.58;58.01
41218;BME280;26950;50.960;7.138;2023-03-25T06:22:49;99497.88;;;12.33;58.07
41218;BME280;26950;50.960;7.138;2023-03-25T06:25:17;99497.81;;;12.15;58.37
41218;BME280;26950;50.960;7.138;2023-03-25T06:27:46;99505.75;;;12.27;58.47
41218;BME280;26950;50.960;7.138;2023-03-25T06:30:16;99490.03;;;12.56;57.69
41218;BME280;26950;50.960;7.138;2023-03-25T06:32:43;99485.66;;;12.61;57.80
41218;BME280;26950;50.960;7.138;2023-03-25T06:35:15;99496.16;;;12.54;58.14
41218;BME280;26950;50.960;7.138;2023-03-25T06:37:44;99498.84;;;12.64;58.59
41218;BME280;26950;50.960;7.138;2023-03-25T06:40:12;99493.56;;;12.72;58.51
41218;BME280;26950;50.960;7.138;2023-03-25T06:42:39;99496.16;;;12.45;59.18
41218;BME280;26950;50.960;7.138;2023-03-25T06:45:07;99499.69;;;12.62;58.46
41218;BME280;26950;50.960;7.138;2023-03-25T06:47:35;99497.06;;;12.51;58.32
41218;BME280;26950;50.960;7.138;2023-03-25T06:50:01;99493.56;;;12.64;58.25
41218;BME280;26950;50.960;7.138;2023-03-25T06:52:28;99503.19;;;12.47;58.45
41218;BME280;26950;50.960;7.138;2023-03-25T06:54:54;99497.84;;;12.21;59.15
41218;BME280;26950;50.960;7.138;2023-03-25T06:57:21;99506.66;;;12.37;58.95
41218;BME280;26950;50.960;7.138;2023-03-25T06:59:47;99500.53;;;12.50;58.08
41218;BME280;26950;50.960;7.138;2023-03-25T07:02:14;99497.88;;;12.36;57.47
41218;BME280;26950;50.960;7.138;2023-03-25T07:04:42;99496.94;;;12.18;57.73
41218;BME280;26950;50.960;7.138;2023-03-25T07:07:08;99496.19;;;12.52;57.05
41218;BME280;26950;50.960;7.138;2023-03-25T07:09:35;99496.16;;;12.54;57.45
41218;BME280;26950;50.960;7.138;2023-03-25T07:12:01;99508.47;;;12.52;57.90
41218;BME280;26950;50.960;7.138;2023-03-25T07:14:28;99519.78;;;12.31;59.14
41218;BME280;26950;50.960;7.138;2023-03-25T07:16:54;99521.44;;;12.03;61.21
41218;BME280;26950;50.960;7.138;2023-03-25T07:19:21;99525.06;;;12.35;60.91
41218;BME280;26950;50.960;7.138;2023-03-25T07:21:48;99534.59;;;12.03;62.36
41218;BME280;26950;50.960;7.138;2023-03-25T07:24:15;99534.66;;;12.24;61.64
41218;BME280;26950;50.960;7.138;2023-03-25T07:26:41;99537.31;;;12.26;61.53
41218;BME280;26950;50.960;7.138;2023-03-25T07:29:10;99542.63;;;12.47;61.31
41218;BME280;26950;50.960;7.138;2023-03-25T07:31:36;99535.63;;;12.55;60.98
41218;BME280;26950;50.960;7.138;2023-03-25T07:34:04;99546.19;;;12.63;61.51
41218;BME280;26950;50.960;7.138;2023-03-25T07:36:32;99547.91;;;12.50;61.37
41218;BME280;26950;50.960;7.138;2023-03-25T07:39:00;99550.56;;;12.55;60.77
41218;BME280;26950;50.960;7.138;2023-03-25T07:41:27;99562.53;;;11.84;61.89
41218;BME280;26950;50.960;7.138;2023-03-25T07:43:53;99559.19;;;12.15;61.34
41218;BME280;26950;50.960;7.138;2023-03-25T07:46:20;99547.81;;;12.20;61.77
41218;BME280;26950;50.960;7.138;2023-03-25T07:48:46;99547.94;;;12.67;60.80
41218;BME280;26950;50.960;7.138;2023-03-25T07:51:13;99550.59;;;12.73;60.02
41218;BME280;26950;50.960;7.138;2023-03-25T07:53:39;99539.19;;;12.66;59.75
41218;BME280;26950;50.960;7.138;2023-03-25T07:56:10;99550.47;;;12.32;60.64
41218;BME280;26950;50.960;7.138;2023-03-25T07:58:37;99558.09;;;11.80;62.06
41218;BME280;26950;50.960;7.138;2023-03-25T08:01:04;99561.94;;;12.55;60.54
41218;BME280;26950;50.960;7.138;2023-03-25T08:03:30;99563.66;;;12.42;60.64
41218;BME280;26950;50.960;7.138;2023-03-25T08:05:59;99564.56;;;12.49;60.21
41218;BME280;26950;50.960;7.138;2023-03-25T08:08:26;99568.00;;;12.30;61.41
41218;BME280;26950;50.960;7.138;2023-03-25T08:10:55;99567.16;;;12.43;61.12
41218;BME280;26950;50.960;7.138;2023-03-25T08:13:23;99570.72;;;12.56;60.59
41218;BME280;26950;50.960;7.138;2023-03-25T08:15:49;99579.53;;;12.75;60.05
41218;BME280;26950;50.960;7.138;2023-03-25T08:18:16;99581.22;;;12.45;60.49
41218;BME280;26950;50.960;7.138;2023-03-25T08:20:42;99584.81;;;12.65;60.07
41218;BME280;26950;50.960;7.138;2023-03-25T08:23:09;99567.94;;;12.19;61.05
41218;BME280;26950;50.960;7.138;2023-03-25T08:25:37;99583.03;;;12.69;59.61
41218;BME280;26950;50.960;7.138;2023-03-25T08:28:04;99584.81;;;12.70;59.55
41218;BME280;26950;50.960;7.138;2023-03-25T08:30:32;99588.28;;;12.52;59.88
41218;BME280;26950;50.960;7.138;2023-03-25T08:33:03;99586.53;;;12.69;58.74
41218;BME280;26950;50.960;7.138;2023-03-25T08:35:31;99603.81;;;12.06;59.90
41218;BME280;26950;50.960;7.138;2023-03-25T08:37:58;99602.34;;;12.57;58.64
41218;BME280;26950;50.960;7.138;2023-03-25T08:40:25;99592.75;;;12.91;58.72
41218;BME280;26950;50.960;7.138;2023-03-25T08:42:52;99596.34;;;13.27;57.65
41218;BME280;26950;50.960;7.138;2023-03-25T08:45:18;99598.13;;;13.53;56.98
41218;BME280;26950;50.960;7.138;2023-03-25T08:47:46;99584.03;;;13.50;54.74
41218;BME280;26950;50.960;7.138;2023-03-25T08:50:13;99595.44;;;13.51;55.10
41218;BME280;26950;50.960;7.138;2023-03-25T08:52:40;99589.31;;;13.38;55.63
41218;BME280;26950;50.960;7.138;2023-03-25T08:55:08;99604.19;;;13.06;56.05
41218;BME280;26950;50.960;7.138;2023-03-25T08:57:35;99591.03;;;13.18;56.01
41218;BME280;26950;50.960;7.138;2023-03-25T09:00:02;99589.22;;;12.85;56.02
41218;BME280;26950;50.960;7.138;2023-03-25T09:02:32;99582.19;;;12.79;55.73
41218;BME280;26950;50.960;7.138;2023-03-25T09:05:00;99582.28;;;13.37;54.74
41218;BME280;26950;50.960;7.138;2023-03-25T09:07:27;99582.28;;;13.37;54.63
41218;BME280;26950;50.960;7.138;2023-03-25T09:09:54;99584.06;;;13.46;54.29
41218;BME280;26950;50.960;7.138;2023-03-25T09:12:20;99587.56;;;13.71;54.09
41218;BME280;26950;50.960;7.138;2023-03-25T09:14:47;99573.47;;;13.75;53.73
41218;BME280;26950;50.960;7.138;2023-03-25T09:17:13;99584.84;;;12.85;54.41
41218;BME280;26950;50.960;7.138;2023-03-25T09:19:40;99588.47;;;13.45;53.40
41218;BME280;26950;50.960;7.138;2023-03-25T09:22:08;99581.41;;;13.66;53.53
41218;BME280;26950;50.960;7.138;2023-03-25T09:24:34;99575.28;;;13.29;52.80
41218;BME280;26950;50.960;7.138;2023-03-25T09:27:01;99592.84;;;13.48;53.18
41218;BME280;26950;50.960;7.138;2023-03-25T09:29:28;99590.22;;;13.34;52.99
41218;BME280;26950;50.960;7.138;2023-03-25T09:31:54;99594.59;;;13.21;53.09
41218;BME280;26950;50.960;7.138;2023-03-25T09:34:22;99591.09;;;13.29;53.16
41218;BME280;26950;50.960;7.138;2023-03-25T09:36:49;99586.66;;;13.44;52.51
41218;BME280;26950;50.960;7.138;2023-03-25T09:39:16;99578.78;;;13.43;51.93
41218;BME280;26950;50.960;7.138;2023-03-25T09:41:56;99590.19;;;13.51;51.46
41218;BME280;26950;50.960;7.138;2023-03-25T09:44:27;99589.31;;;13.54;51.62
41218;BME280;26950;50.960;7.138;2023-03-25T09:46:55;99584.94;;;13.54;51.89
41218;BME280;26950;50.960;7.138;2023-03-25T09:49:35;99582.25;;;13.74;51.91
41218;BME280;26950;50.960;7.138;2023-03-25T09:52:04;99591.00;;;13.94;51.83
41218;BME280;26950;50.960;7.138;2023-03-25T09:54:45;99588.25;;;14.36;50.60
41218;BME280;26950;50.960;7.138;2023-03-25T09:57:17;99590.19;;;13.68;50.91
41218;BME280;26950;50.960;7.138;2023-03-25T09:59:48;99592.78;;;13.91;50.89
41218;BME280;26950;50.960;7.138;2023-03-25T10:02:25;99586.69;;;13.52;51.41
41218;BME280;26950;50.960;7.138;2023-03-25T10:05:02;99598.97;;;13.74;50.89
41218;BME280;26950;50.960;7.138;2023-03-25T10:07:43;99601.63;;;13.71;49.85
41218;BME280;26950;50.960;7.138;2023-03-25T10:10:24;99605.91;;;14.08;50.31
41218;BME280;26950;50.960;7.138;2023-03-25T10:12:59;99603.34;;;13.69;50.29
41218;BME280;26950;50.960;7.138;2023-03-25T10:15:32;99599.84;;;13.78;50.31
41218;BME280;26950;50.960;7.138;2023-03-25T10:18:18;99602.50;;;13.49;51.23
41218;BME280;26950;50.960;7.138;2023-03-25T10:20:51;99592.81;;;13.66;50.83
41218;BME280;26950;50.960;7.138;2023-03-25T10:23:31;99603.28;;;14.15;50.25
41218;BME280;26950;50.960;7.138;2023-03-25T10:26:04;99594.53;;;13.89;50.58
41218;BME280;26950;50.960;7.138;2023-03-25T10:28:37;99590.16;;;13.91;50.01
41218;BME280;26950;50.960;7.138;2023-03-25T10:31:10;99592.81;;;13.83;50.13
41218;BME280;26950;50.960;7.138;2023-03-25T10:33:42;99587.56;;;13.71;51.09
41218;BME280;26950;50.960;7.138;2023-03-25T10:36:16;99601.59;;;13.70;51.34
41218;BME280;26950;50.960;7.138;2023-03-25T10:38:45;99607.75;;;13.49;51.94
41218;BME280;26950;50.960;7.138;2023-03-25T10:41:22;99609.50;;;13.68;54.00
41218;BME280;26950;50.960;7.138;2023-03-25T10:43:50;99599.94;;;15.44;50.28
41218;BME280;26950;50.960;7.138;2023-03-25T10:46:24;99614.34;;;16.12;48.79
41218;BME280;26950;50.960;7.138;2023-03-25T10:48:51;99618.19;;;16.60;46.81
41218;BME280;26950;50.960;7.138;2023-03-25T10:51:19;99626.16;;;15.74;46.96
41218;BME280;26950;50.960;7.138;2023-03-25T10:53:49;99619.88;;;16.66;48.02
41218;BME280;26950;50.960;7.138;2023-03-25T10:56:20;99621.88;;;17.73;45.45
41218;BME280;26950;50.960;7.138;2023-03-25T10:58:52;99609.31;;;18.74;41.34
41218;BME280;26950;50.960;7.138;2023-03-25T11:01:23;99590.56;;;19.90;40.51
41218;BME280;26950;50.960;7.138;2023-03-25T11:03:53;99596.44;;;21.52;36.97
41218;BME280;26950;50.960;7.138;2023-03-25T11:06:23;99601.03;;;20.31;37.97
41218;BME280;26950;50.960;7.138;2023-03-25T11:09:10;99605.28;;;18.09;40.81
41218;BME280;26950;50.960;7.138;2023-03-25T11:11:40;99604.94;;;17.25;42.90
41218;BME280;26950;50.960;7.138;2023-03-25T11:14:07;99605.28;;;17.01;44.18
41218;BME280;26950;50.960;7.138;2023-03-25T11:16:40;99625.25;;;16.60;45.59
41218;BME280;26950;50.960;7.138;2023-03-25T11:19:17;99633.66;;;15.08;51.89
41218;BME280;26950;50.960;7.138;2023-03-25T11:21:47;99640.34;;;15.67;51.23
41218;BME280;26950;50.960;7.138;2023-03-25T11:24:18;99634.19;;;15.65;51.67
41218;BME280;26950;50.960;7.138;2023-03-25T11:26:47;99624.53;;;16.45;49.77
41218;BME280;26950;50.960;7.138;2023-03-25T11:29:18;99612.22;;;16.43;50.10
41218;BME280;26950;50.960;7.138;2023-03-25T11:31:55;99615.75;;;16.42;48.76
41218;BME280;26950;50.960;7.138;2023-03-25T11:34:22;99624.25;;;16.70;48.01
41218;BME280;26950;50.960;7.138;2023-03-25T11:36:52;99620.50;;;16.88;47.39
41218;BME280;26950;50.960;7.138;2023-03-25T11:39:26;99608.88;;;16.98;47.50
41218;BME280;26950;50.960;7.138;2023-03-25T11:41:56;99602.44;;;16.48;47.35
41218;BME280;26950;50.960;7.138;2023-03-25T11:44:25;99607.16;;;16.22;47.05
41218;BME280;26950;50.960;7.138;2023-03-25T11:46:55;99608.56;;;15.70;47.63
41218;BME280;26950;50.960;7.138;2023-03-25T11:49:22;99609.72;;;15.34;48.15
41218;BME280;26950;50.960;7.138;2023-03-25T11:51:56;99601.13;;;15.01;47.64
41218;BME280;26950;50.960;7.138;2023-03-25T11:54:24;99599.25;;;15.19;47.97
41218;BME280;26950;50.960;7.138;2023-03-25T11:56:53;99617.34;;;14.16;49.27
41218;BME280;26950;50.960;7.138;2023-03-25T11:59:24;99604.91;;;14.51;48.79
41218;BME280;26950;50.960;7.138;2023-03-25T12:01:58;99606.69;;;14.59;48.18
41218;BME280;26950;50.960;7.138;2023-03-25T12:04:26;99602.16;;;14.79;47.73
41218;BME280;26950;50.960;7.138;2023-03-25T12:06:56;99613.66;;;14.72;48.40
41218;BME280;26950;50.960;7.138;2023-03-25T12:09:23;99604.16;;;14.07;48.79
41218;BME280;26950;50.960;7.138;2023-03-25T12:11:56;99614.56;;;14.57;48.27
41218;BME280;26950;50.960;7.138;2023-03-25T12:14:37;99608.59;;;13.98;48.75
41218;BME280;26950;50.960;7.138;2023-03-25T12:17:17;99616.38;;;14.38;47.76
41218;BME280;26950;50.960;7.138;2023-03-25T12:19:53;99603.19;;;14.41;48.13
41218;BME280;26950;50.960;7.138;2023-03-25T12:22:33;99603.16;;;14.56;47.49
41218;BME280;26950;50.960;7.138;2023-03-25T12:25:17;99602.34;;;14.35;47.19
41218;BME280;26950;50.960;7.138;2023-03-25T12:27:55;99588.16;;;14.66;47.06
41218;BME280;26950;50.960;7.138;2023-03-25T12:30:38;99579.50;;;14.27;47.89
41218;BME280;26950;50.960;7.138;2023-03-25T12:33:19;99592.59;;;14.44;48.02
41218;BME280;26950;50.960;7.138;2023-03-25T12:36:03;99589.16;;;14.33;48.34
41218;BME280;26950;50.960;7.138;2023-03-25T12:38:37;99583.81;;;14.44;48.06
41218;BME280;26950;50.960;7.138;2023-03-25T12:41:16;99578.44;;;14.73;47.50
41218;BME280;26950;50.960;7.138;2023-03-25T12:43:56;99567.88;;;14.73;46.97
41218;BME280;26950;50.960;7.138;2023-03-25T12:49:23;99564.50;;;14.46;45.93
41218;BME280;26950;50.960;7.138;2023-03-25T12:52:00;99550.28;;;14.72;46.05
41218;BME280;26950;50.960;7.138;2023-03-25T12:54:43;99564.06;;;15.17;45.26
41218;BME280;26950;50.960;7.138;2023-03-25T12:57:21;99553.28;;;15.41;44.10
41218;BME280;26950;50.960;7.138;2023-03-25T13:00:02;99551.25;;;15.71;43.54
41218;BME280;26950;50.960;7.138;2023-03-25T13:02:55;99532.59;;;15.86;42.83
41218;BME280;26950;50.960;7.138;2023-03-25T13:05:31;99536.03;;;15.93;42.41
41218;BME280;26950;50.960;7.138;2023-03-25T13:08:06;99527.72;;;16.25;41.86
41218;BME280;26950;50.960;7.138;2023-03-25T13:10:36;99542.53;;;16.38;41.60
41218;BME280;26950;50.960;7.138;2023-03-25T13:13:10;99559.34;;;16.37;41.97
41218;BME280;26950;50.960;7.138;2023-03-25T13:15:41;99534.09;;;16.08;41.76
41218;BME280;26950;50.960;7.138;2023-03-25T13:18:13;99536.59;;;16.22;42.04
41218;BME280;26950;50.960;7.138;2023-03-25T13:20:43;99544.41;;;15.47;43.38
41218;BME280;26950;50.960;7.138;2023-03-25T13:23:15;99543.81;;;16.06;42.94
41218;BME280;26950;50.960;7.138;2023-03-25T13:25:48;99553.19;;;15.53;43.43